createdAt,value
2019-02-14T00:02:28.876Z,96812.36
2019-02-14T00:05:17.739Z,96815.45
2019-02-14T00:07:47.289Z,96813.09
2019-02-14T00:10:16.796Z,96814.41
2019-02-14T00:12:46.318Z,96819.81
2019-02-14T00:15:15.842Z,96824.35
2019-02-14T00:17:45.668Z,96822.43
2019-02-14T00:20:15.169Z,96822.35
2019-02-14T00:22:44.728Z,96820.81
2019-02-14T00:25:14.282Z,96825.27
2019-02-14T00:27:43.805Z,96825.34
2019-02-14T00:30:13.324Z,96824.20
2019-02-14T00:32:42.925Z,96823.94
2019-02-14T00:35:12.436Z,96813.17
2019-02-14T00:37:41.935Z,96809.13
2019-02-14T00:40:11.657Z,96813.99
2019-02-14T00:42:41.161Z,96817.47
2019-02-14T00:45:10.735Z,96821.69
2019-02-14T00:47:40.287Z,96817.19
2019-02-14T00:50:09.780Z,96815.50
2019-02-14T00:52:39.287Z,96809.08
2019-02-14T00:55:28.137Z,96817.39
2019-02-14T00:57:57.648Z,96818.26
2019-02-14T01:00:46.514Z,96824.53
2019-02-14T01:03:48.582Z,96821.54
2019-02-14T01:06:18.101Z,96832.63
2019-02-14T01:08:47.609Z,96825.72
2019-02-14T01:11:17.152Z,96821.25
2019-02-14T01:13:46.648Z,96819.03
2019-02-14T01:16:16.166Z,96815.89
2019-02-14T01:18:45.665Z,96816.05
2019-02-14T01:21:15.182Z,96807.95
2019-02-14T01:23:45.941Z,96810.50
2019-02-14T01:26:15.469Z,96808.52
2019-02-14T01:28:44.959Z,96808.72
2019-02-14T01:31:14.574Z,96807.36
2019-02-14T01:33:44.068Z,96814.77
2019-02-14T01:36:15.203Z,96810.14
2019-02-14T01:38:44.733Z,96815.48
2019-02-14T01:41:14.256Z,96818.66
2019-02-14T01:43:43.771Z,96824.80
2019-02-14T01:46:13.294Z,96819.64
2019-02-14T01:48:43.756Z,96811.20
2019-02-14T01:51:13.270Z,96814.63
2019-02-14T01:53:42.800Z,96816.89
2019-02-14T01:56:12.315Z,96820.84
2019-02-14T01:58:41.851Z,96817.82
2019-02-14T02:01:12.085Z,96810.67
2019-02-14T02:03:41.586Z,96813.25
2019-02-14T02:06:11.110Z,96812.55
2019-02-14T02:08:40.607Z,96811.12
2019-02-14T02:11:10.601Z,96811.67
2019-02-14T02:13:41.040Z,96812.91
2019-02-14T02:16:10.590Z,96812.09
2019-02-14T02:18:40.086Z,96805.23
2019-02-14T02:21:09.633Z,96810.34
2019-02-14T02:23:39.235Z,96816.20
2019-02-14T02:26:09.478Z,96820.42
2019-02-14T02:28:38.979Z,96812.42
2019-02-14T02:31:08.694Z,96802.28
2019-02-14T02:33:38.194Z,96792.34
2019-02-14T02:36:07.746Z,96785.99
2019-02-14T02:38:37.743Z,96789.90
2019-02-14T02:41:07.263Z,96791.94
2019-02-14T02:43:36.759Z,96803.86
2019-02-14T02:46:06.342Z,96807.16
2019-02-14T02:48:35.876Z,96809.94
2019-02-14T02:51:06.057Z,96808.05
2019-02-14T02:53:35.558Z,96797.23
2019-02-14T02:56:05.109Z,96803.19
2019-02-14T02:58:34.608Z,96798.05
2019-02-14T03:01:04.196Z,96795.52
2019-02-14T03:03:34.427Z,96799.42
2019-02-14T03:06:10.307Z,96794.91
2019-02-14T03:08:35.166Z,96799.89
2019-02-14T03:11:04.718Z,96796.94
2019-02-14T03:13:34.206Z,96799.86
2019-02-14T03:16:03.753Z,96798.45
2019-02-14T03:18:33.285Z,96796.19
2019-02-14T03:21:02.808Z,96794.11
2019-02-14T03:23:32.336Z,96794.41
2019-02-14T03:26:01.855Z,96791.91
2019-02-14T03:28:31.430Z,96792.60
2019-02-14T03:31:00.976Z,96793.70
2019-02-14T03:33:30.471Z,96794.27
2019-02-14T03:36:00.001Z,96796.20
2019-02-14T03:38:29.507Z,96797.03
2019-02-14T03:40:59.105Z,96797.48
2019-02-14T03:43:28.611Z,96804.00
2019-02-14T03:45:58.164Z,96809.05
2019-02-14T03:48:27.670Z,96804.41
2019-02-14T03:50:57.266Z,96803.81
2019-02-14T03:53:26.765Z,96800.39
2019-02-14T03:55:56.287Z,96803.61
2019-02-14T03:58:25.788Z,96805.66
2019-02-14T04:00:55.309Z,96806.53
2019-02-14T04:03:24.813Z,96803.17
2019-02-14T04:05:54.317Z,96805.25
2019-02-14T04:08:23.834Z,96802.75
2019-02-14T04:10:53.352Z,96795.55
2019-02-14T04:13:22.877Z,96793.42
2019-02-14T04:15:52.446Z,96802.67
2019-02-14T04:18:21.947Z,96800.02
2019-02-14T04:20:51.467Z,96808.64
2019-02-14T04:23:21.017Z,96811.61
2019-02-14T04:25:50.535Z,96810.99
2019-02-14T04:28:20.036Z,96815.34
2019-02-14T04:30:49.545Z,96815.81
2019-02-14T04:33:19.075Z,96824.77
2019-02-14T04:35:48.581Z,96824.36
2019-02-14T04:38:18.090Z,96827.18
2019-02-14T04:40:47.593Z,96835.79
2019-02-14T04:43:17.116Z,96836.77
2019-02-14T04:45:46.651Z,96836.79
2019-02-14T04:48:16.177Z,96826.17
2019-02-14T04:50:45.711Z,96827.67
2019-02-14T04:53:15.259Z,96825.07
2019-02-14T04:55:44.762Z,96830.01
2019-02-14T04:58:15.559Z,96827.23
2019-02-14T05:00:45.071Z,96825.09
2019-02-14T05:03:14.571Z,96832.14
2019-02-14T05:05:44.114Z,96826.56
2019-02-14T05:08:13.630Z,96820.24
2019-02-14T05:10:44.238Z,96819.29
2019-02-14T05:13:13.756Z,96815.06
2019-02-14T05:15:43.258Z,96825.49
2019-02-14T05:18:12.814Z,96815.93
2019-02-14T05:20:42.312Z,96818.73
2019-02-14T05:23:12.810Z,96824.20
2019-02-14T05:25:42.333Z,96818.52
2019-02-14T05:28:11.860Z,96812.69
2019-02-14T05:30:41.383Z,96812.70
2019-02-14T05:33:10.901Z,96817.69
2019-02-14T05:35:41.502Z,96815.98
2019-02-14T05:38:11.021Z,96822.73
2019-02-14T05:40:40.551Z,96817.48
2019-02-14T05:43:10.079Z,96812.73
2019-02-14T05:45:39.609Z,96822.89
2019-02-14T05:48:10.371Z,96825.52
2019-02-14T05:50:39.871Z,96833.98
2019-02-14T05:53:09.391Z,96837.22
2019-02-14T05:55:38.916Z,96845.23
2019-02-14T05:58:08.529Z,96842.69
2019-02-14T06:00:39.533Z,96845.19
2019-02-14T06:03:09.077Z,96848.04
2019-02-14T06:05:38.568Z,96846.69
2019-02-14T06:08:08.093Z,96849.87
2019-02-14T06:10:37.607Z,96850.37
2019-02-14T06:13:07.828Z,96853.58
2019-02-14T06:15:37.379Z,96858.64
2019-02-14T06:18:06.883Z,96861.48
2019-02-14T06:20:36.410Z,96862.20
2019-02-14T06:23:05.963Z,96851.91
2019-02-14T06:25:36.517Z,96858.16
2019-02-14T06:28:06.156Z,96867.91
2019-02-14T06:30:35.689Z,96869.43
2019-02-14T06:33:05.231Z,96871.39
2019-02-14T06:35:34.749Z,96874.48
2019-02-14T06:38:05.061Z,96876.83
2019-02-14T06:40:34.584Z,96870.41
2019-02-14T06:43:04.091Z,96873.89
2019-02-14T06:45:33.711Z,96881.45
2019-02-14T06:48:03.254Z,96880.95
2019-02-14T06:50:34.988Z,96878.30
2019-02-14T06:53:04.651Z,96874.33
2019-02-14T06:55:34.150Z,96871.41
2019-02-14T06:58:03.663Z,96874.05
2019-02-14T07:00:33.161Z,96872.81
2019-02-14T07:03:02.667Z,96885.58
2019-02-14T07:05:32.179Z,96886.36
2019-02-14T07:08:01.734Z,96891.08
2019-02-14T07:10:31.324Z,96879.38
2019-02-14T07:13:00.858Z,96883.33
2019-02-14T07:15:30.356Z,96883.05
2019-02-14T07:17:59.874Z,96884.37
2019-02-14T07:20:29.372Z,96880.11
2019-02-14T07:22:58.872Z,96875.74
2019-02-14T07:25:28.434Z,96877.88
2019-02-14T07:27:58.061Z,96881.47
2019-02-14T07:30:28.970Z,96877.42
2019-02-14T07:32:58.491Z,96884.56
2019-02-14T07:35:28.066Z,96882.03
2019-02-14T07:37:57.574Z,96888.48
2019-02-14T07:40:27.124Z,96896.38
2019-02-14T07:42:56.700Z,96900.81
2019-02-14T07:45:26.279Z,96895.61
2019-02-14T07:47:55.806Z,96896.42
2019-02-14T07:50:25.676Z,96897.45
2019-02-14T07:52:55.175Z,96900.25
2019-02-14T07:55:24.708Z,96902.44
2019-02-14T07:57:54.235Z,96896.74
2019-02-14T08:00:23.733Z,96887.54
2019-02-14T08:02:53.261Z,96884.82
2019-02-14T08:05:22.783Z,96884.59
2019-02-14T08:07:52.305Z,96873.44
2019-02-14T08:10:21.879Z,96883.50
2019-02-14T08:12:51.377Z,96893.25
2019-02-14T08:15:20.939Z,96885.39
2019-02-14T08:17:50.466Z,96884.53
2019-02-14T08:20:21.901Z,96884.73
2019-02-14T08:22:51.392Z,96874.81
2019-02-14T08:25:20.981Z,96871.41
2019-02-14T08:27:50.473Z,96874.66
2019-02-14T08:30:22.673Z,96870.67
2019-02-14T08:32:52.194Z,96879.66
2019-02-14T08:35:21.797Z,96881.55
2019-02-14T08:37:51.280Z,96874.63
2019-02-14T08:40:27.234Z,96882.05
2019-02-14T08:42:58.574Z,96873.38
2019-02-14T08:45:28.064Z,96877.02
2019-02-14T08:47:57.579Z,96875.33
2019-02-14T08:50:27.115Z,96866.12
2019-02-14T08:52:56.631Z,96876.22
2019-02-14T08:55:26.173Z,96880.55
2019-02-14T08:57:55.674Z,96878.65
2019-02-14T09:00:25.280Z,96868.00
2019-02-14T09:02:54.786Z,96867.34
2019-02-14T09:05:24.304Z,96866.53
2019-02-14T09:07:55.074Z,96866.68
2019-02-14T09:10:24.688Z,96866.11
2019-02-14T09:12:54.301Z,96859.20
2019-02-14T09:15:24.464Z,96857.66
2019-02-14T09:17:53.965Z,96863.23
2019-02-14T09:20:23.543Z,96870.71
2019-02-14T09:22:53.035Z,96873.66
2019-02-14T09:25:22.549Z,96867.80
2019-02-14T09:27:53.288Z,96868.44
2019-02-14T09:30:22.848Z,96855.48
2019-02-14T09:32:52.339Z,96863.95
2019-02-14T09:35:21.871Z,96865.86
2019-02-14T09:37:51.396Z,96866.17
2019-02-14T09:40:21.819Z,96877.94
2019-02-14T09:42:51.323Z,96878.47
2019-02-14T09:45:20.840Z,96874.36
2019-02-14T09:47:50.322Z,96862.31
2019-02-14T09:50:19.858Z,96865.03
2019-02-14T09:52:49.936Z,96855.81
2019-02-14T09:55:19.442Z,96858.09
2019-02-14T09:57:49.046Z,96858.23
2019-02-14T10:00:19.727Z,96862.03
2019-02-14T10:02:49.205Z,96865.45
2019-02-14T10:05:18.806Z,96865.52
2019-02-14T10:07:48.318Z,96879.27
2019-02-14T10:10:24.905Z,96887.77
2019-02-14T10:12:54.376Z,96880.11
2019-02-14T10:15:23.890Z,96866.23
2019-02-14T10:17:53.381Z,96866.09
2019-02-14T10:20:23.421Z,96868.36
2019-02-14T10:22:52.947Z,96880.56
2019-02-14T10:25:22.449Z,96871.73
2019-02-14T10:27:51.972Z,96872.09
2019-02-14T10:30:24.911Z,96867.31
2019-02-14T10:32:54.393Z,96870.88
2019-02-14T10:35:23.906Z,96872.30
2019-02-14T10:37:53.414Z,96868.27
2019-02-14T10:40:22.941Z,96866.85
2019-02-14T10:42:52.425Z,96870.52
2019-02-14T10:45:24.997Z,96850.47
2019-02-14T10:47:54.494Z,96846.87
2019-02-14T10:50:24.014Z,96848.77
2019-02-14T10:52:53.564Z,96846.67
2019-02-14T10:55:23.068Z,96850.34
2019-02-14T10:57:52.560Z,96854.77
2019-02-14T11:00:27.404Z,96841.61
2019-02-14T11:02:56.911Z,96843.71
2019-02-14T11:05:26.448Z,96830.16
2019-02-14T11:07:55.938Z,96824.41
2019-02-14T11:10:25.458Z,96824.80
2019-02-14T11:12:54.993Z,96825.97
2019-02-14T11:15:26.014Z,96824.42
2019-02-14T11:17:55.589Z,96813.58
2019-02-14T11:20:25.184Z,96798.55
2019-02-14T11:22:54.721Z,96795.47
2019-02-14T11:25:39.247Z,96795.44
2019-02-14T11:28:08.751Z,96798.98
2019-02-14T11:30:38.265Z,96792.52
2019-02-14T11:33:07.786Z,96790.92
2019-02-14T11:35:37.318Z,96789.51
2019-02-14T11:38:06.866Z,96786.59
2019-02-14T11:40:36.360Z,96782.59
2019-02-14T11:43:05.946Z,96778.84
2019-02-14T11:45:35.444Z,96771.96
2019-02-14T11:48:04.952Z,96771.44
2019-02-14T11:50:34.505Z,96773.61
2019-02-14T11:53:03.994Z,96770.81
2019-02-14T11:55:33.508Z,96764.64
2019-02-14T11:58:03.000Z,96756.36
2019-02-14T12:00:32.591Z,96750.61
2019-02-14T12:03:02.083Z,96754.84
2019-02-14T12:05:31.617Z,96742.44
2019-02-14T12:08:01.108Z,96745.41
2019-02-14T12:10:30.657Z,96747.30
2019-02-14T12:13:00.154Z,96743.02
2019-02-14T12:15:29.684Z,96737.88
2019-02-14T12:17:59.185Z,96727.84
2019-02-14T12:20:28.769Z,96724.28
2019-02-14T12:22:58.275Z,96725.28
2019-02-14T12:25:31.373Z,96724.78
2019-02-14T12:28:00.918Z,96727.73
2019-02-14T12:30:30.508Z,96721.22
2019-02-14T12:33:00.013Z,96725.42
2019-02-14T12:35:29.525Z,96727.00
2019-02-14T12:37:59.049Z,96729.38
2019-02-14T12:40:28.537Z,96727.47
2019-02-14T12:42:58.068Z,96729.44
2019-02-14T12:45:28.295Z,96719.97
2019-02-14T12:47:57.782Z,96721.91
2019-02-14T12:50:27.291Z,96729.39
2019-02-14T12:52:56.848Z,96724.77
2019-02-14T12:55:26.403Z,96719.82
2019-02-14T12:57:55.902Z,96719.62
2019-02-14T13:00:25.799Z,96716.89
2019-02-14T13:02:55.318Z,96713.93
2019-02-14T13:05:24.829Z,96708.08
2019-02-14T13:07:54.331Z,96707.64
2019-02-14T13:10:23.827Z,96713.88
2019-02-14T13:12:53.370Z,96703.71
2019-02-14T13:15:27.215Z,96695.05
2019-02-14T13:17:56.740Z,96689.51
2019-02-14T13:20:26.318Z,96689.52
2019-02-14T13:22:55.854Z,96687.98
2019-02-14T13:25:25.366Z,96686.97
2019-02-14T13:27:54.901Z,96693.53
2019-02-14T13:30:26.712Z,96695.77
2019-02-14T13:32:56.301Z,96688.41
2019-02-14T13:35:25.795Z,96683.16
2019-02-14T13:37:55.377Z,96681.47
2019-02-14T13:40:24.833Z,96682.16
2019-02-14T13:42:55.102Z,96681.64
2019-02-14T13:45:25.574Z,96683.22
2019-02-14T13:47:55.077Z,96669.94
2019-02-14T13:50:24.594Z,96663.03
2019-02-14T13:52:54.119Z,96672.66
2019-02-14T13:55:23.610Z,96675.70
2019-02-14T13:57:53.130Z,96673.27
2019-02-14T14:00:26.855Z,96670.77
2019-02-14T14:02:56.398Z,96673.77
2019-02-14T14:05:25.894Z,96668.66
2019-02-14T14:07:55.415Z,96670.98
2019-02-14T14:10:24.916Z,96673.85
2019-02-14T14:12:54.466Z,96668.73
2019-02-14T14:15:23.951Z,96658.78
2019-02-14T14:17:53.563Z,96653.20
2019-02-14T14:20:23.075Z,96659.47
2019-02-14T14:22:52.575Z,96655.54
2019-02-14T14:25:22.121Z,96669.39
2019-02-14T14:27:51.634Z,96659.48
2019-02-14T14:30:21.217Z,96663.89
2019-02-14T14:32:50.815Z,96662.78
2019-02-14T14:35:20.324Z,96670.77
2019-02-14T14:37:49.828Z,96670.92
2019-02-14T14:40:20.582Z,96670.96
2019-02-14T14:42:49.993Z,96674.03
2019-02-14T14:45:22.727Z,96668.77
2019-02-14T14:47:52.251Z,96670.63
2019-02-14T14:50:21.740Z,96667.45
2019-02-14T14:52:51.268Z,96673.03
2019-02-14T14:55:20.781Z,96675.69
2019-02-14T14:57:50.307Z,96676.73
2019-02-14T15:00:20.593Z,96678.20
2019-02-14T15:02:50.120Z,96684.39
2019-02-14T15:05:19.612Z,96682.61
2019-02-14T15:07:49.146Z,96682.12
2019-02-14T15:10:18.671Z,96671.89
2019-02-14T15:12:49.425Z,96669.95
2019-02-14T15:15:18.911Z,96664.31
2019-02-14T15:17:48.435Z,96664.42
2019-02-14T15:20:17.929Z,96666.56
2019-02-14T15:22:47.456Z,96662.31
2019-02-14T15:25:16.951Z,96662.84
2019-02-14T15:27:46.479Z,96657.47
2019-02-14T15:30:15.984Z,96652.02
2019-02-14T15:32:45.512Z,96655.77
2019-02-14T15:35:15.008Z,96656.20
2019-02-14T15:37:47.159Z,96655.34
2019-02-14T15:40:15.760Z,96657.04
2019-02-14T15:42:45.311Z,96657.39
2019-02-14T15:45:14.826Z,96659.61
2019-02-14T15:47:44.358Z,96655.59
2019-02-14T15:50:14.151Z,96649.31
2019-02-14T15:52:43.670Z,96650.71
2019-02-14T15:55:13.205Z,96656.27
2019-02-14T15:57:44.657Z,96656.22
2019-02-14T16:00:15.205Z,96652.81
2019-02-14T16:02:44.712Z,96647.60
2019-02-14T16:05:14.623Z,96638.92
2019-02-14T16:07:45.456Z,96644.34
2019-02-14T16:10:18.664Z,96643.63
2019-02-14T16:12:46.298Z,96649.68
2019-02-14T16:15:15.783Z,96667.54
2019-02-14T16:17:45.295Z,96672.83
2019-02-14T16:20:15.777Z,96678.47
2019-02-14T16:22:46.189Z,96678.20
2019-02-14T16:25:15.642Z,96674.38
2019-02-14T16:27:46.397Z,96669.69
2019-02-14T16:30:16.656Z,96668.33
2019-02-14T16:32:46.192Z,96673.07
2019-02-14T16:35:15.721Z,96682.45
2019-02-14T16:37:46.515Z,96681.69
2019-02-14T16:40:16.454Z,96681.73
2019-02-14T16:42:45.997Z,96679.12
2019-02-14T16:45:15.484Z,96680.16
2019-02-14T16:47:44.967Z,96693.00
2019-02-14T16:50:14.512Z,96697.58
2019-02-14T16:52:44.006Z,96699.42
2019-02-14T16:55:13.548Z,96698.73
2019-02-14T16:57:43.060Z,96703.52
2019-02-14T17:00:13.530Z,96704.20
2019-02-14T17:02:43.053Z,96700.14
2019-02-14T17:05:12.574Z,96694.48
2019-02-14T17:07:42.096Z,96704.56
2019-02-14T17:10:12.483Z,96704.76
2019-02-14T17:12:41.982Z,96708.39
2019-02-14T17:15:11.826Z,96705.37
2019-02-14T17:17:41.341Z,96706.25
2019-02-14T17:20:12.069Z,96717.31
2019-02-14T17:22:41.591Z,96713.31
2019-02-14T17:25:11.415Z,96718.26
2019-02-14T17:27:40.961Z,96713.69
2019-02-14T17:30:11.374Z,96714.39
2019-02-14T17:32:40.918Z,96712.16
2019-02-14T17:35:10.466Z,96715.58
2019-02-14T17:37:39.982Z,96715.52
2019-02-14T17:40:10.587Z,96721.23
2019-02-14T17:42:40.198Z,96718.48
2019-02-14T17:45:10.628Z,96726.39
2019-02-14T17:47:40.432Z,96725.73
2019-02-14T17:50:10.288Z,96739.37
2019-02-14T17:52:39.806Z,96742.20
2019-02-14T17:55:10.753Z,96746.94
2019-02-14T17:57:40.297Z,96747.41
2019-02-14T18:00:12.666Z,96743.45
2019-02-14T18:02:42.371Z,96743.18
2019-02-14T18:05:11.931Z,96746.27
2019-02-14T18:07:41.475Z,96743.56
2019-02-14T18:10:14.188Z,96752.63
2019-02-14T18:12:43.704Z,96750.18
2019-02-14T18:15:14.960Z,96743.09
2019-02-14T18:17:44.488Z,96745.28
2019-02-14T18:20:13.979Z,96749.02
2019-02-14T18:22:43.498Z,96747.98
2019-02-14T18:25:13.648Z,96753.44
2019-02-14T18:27:43.179Z,96752.79
2019-02-14T18:30:14.481Z,96764.77
2019-02-14T18:32:44.020Z,96764.44
2019-02-14T18:35:13.886Z,96759.62
2019-02-14T18:37:43.413Z,96753.56
2019-02-14T18:40:13.486Z,96748.59
2019-02-14T18:42:46.426Z,96746.66
2019-02-14T18:45:16.235Z,96750.09
2019-02-14T18:47:45.796Z,96747.80
2019-02-14T18:50:15.996Z,96756.84
2019-02-14T18:52:45.504Z,96749.20
2019-02-14T18:55:15.003Z,96745.11
2019-02-14T18:57:44.535Z,96751.23
2019-02-14T19:00:19.104Z,96750.06
2019-02-14T19:02:48.628Z,96748.45
2019-02-14T19:05:18.131Z,96745.70
2019-02-14T19:07:47.679Z,96752.27
2019-02-14T19:10:18.104Z,96745.02
2019-02-14T19:12:47.644Z,96741.00
2019-02-14T19:15:17.303Z,96734.44
2019-02-14T19:17:46.830Z,96742.84
2019-02-14T19:20:16.326Z,96744.64
2019-02-14T19:22:45.912Z,96744.08
2019-02-14T19:25:15.444Z,96744.64
2019-02-14T19:27:44.979Z,96743.93
2019-02-14T19:30:15.037Z,96739.07
2019-02-14T19:32:44.589Z,96740.66
2019-02-14T19:35:22.426Z,96741.41
2019-02-14T19:37:45.384Z,96736.70
2019-02-14T19:40:14.974Z,96734.37
2019-02-14T19:42:44.478Z,96738.58
2019-02-14T19:45:14.015Z,96739.84
2019-02-14T19:47:43.524Z,96735.73
2019-02-14T19:50:14.564Z,96730.03
2019-02-14T19:52:44.070Z,96736.73
2019-02-14T19:55:13.675Z,96734.23
2019-02-14T19:57:43.179Z,96736.63
2019-02-14T20:00:16.459Z,96740.38
2019-02-14T20:02:45.962Z,96735.67
2019-02-14T20:05:15.525Z,96738.64
2019-02-14T20:07:45.028Z,96738.09
2019-02-14T20:10:17.523Z,96741.95
2019-02-14T20:12:47.036Z,96738.65
2019-02-14T20:15:21.261Z,96742.33
2019-02-14T20:17:50.745Z,96745.85
2019-02-14T20:20:20.281Z,96750.11
2019-02-14T20:22:49.785Z,96749.59
2019-02-14T20:25:26.438Z,96743.58
2019-02-14T20:27:55.951Z,96750.31
2019-02-14T20:30:25.484Z,96750.09
2019-02-14T20:33:03.882Z,96751.38
2019-02-14T20:35:26.290Z,96749.25
2019-02-14T20:37:55.818Z,96744.95
2019-02-14T20:40:25.368Z,96753.66
2019-02-14T20:42:54.863Z,96754.72
2019-02-14T20:45:24.411Z,96759.12
2019-02-14T20:47:57.057Z,96750.13
2019-02-14T20:50:25.201Z,96754.82
2019-02-14T20:52:54.707Z,96748.70
2019-02-14T20:55:27.689Z,96750.50
2019-02-14T20:57:57.190Z,96753.28
2019-02-14T21:00:28.393Z,96756.59
2019-02-14T21:02:57.878Z,96756.26
2019-02-14T21:05:27.863Z,96754.56
2019-02-14T21:07:57.386Z,96760.79
2019-02-14T21:10:26.988Z,96756.83
2019-02-14T21:12:56.482Z,96758.45
2019-02-14T21:15:26.022Z,96757.67
2019-02-14T21:17:56.763Z,96761.60
2019-02-14T21:20:26.295Z,96755.00
2019-02-14T21:22:55.832Z,96746.89
2019-02-14T21:25:25.422Z,96753.18
2019-02-14T21:27:55.605Z,96753.05
2019-02-14T21:30:25.675Z,96750.23
2019-02-14T21:32:55.172Z,96751.73
2019-02-14T21:35:24.907Z,96746.79
2019-02-14T21:37:54.555Z,96746.11
2019-02-14T21:40:24.357Z,96744.86
2019-02-14T21:42:54.030Z,96752.16
2019-02-14T21:45:23.554Z,96746.84
2019-02-14T21:47:53.104Z,96749.92
2019-02-14T21:50:22.718Z,96744.66
2019-02-14T21:52:52.243Z,96738.73
2019-02-14T21:55:23.037Z,96740.22
2019-02-14T21:57:52.640Z,96738.05
2019-02-14T22:00:28.686Z,96734.28
2019-02-14T22:02:58.217Z,96734.00
2019-02-14T22:05:27.782Z,96735.48
2019-02-14T22:07:57.303Z,96732.41
2019-02-14T22:10:26.808Z,96736.33
2019-02-14T22:12:56.633Z,96727.37
2019-02-14T22:15:30.302Z,96732.28
2019-02-14T22:18:00.161Z,96737.86
2019-02-14T22:20:29.650Z,96731.27
2019-02-14T22:22:59.484Z,96744.55
2019-02-14T22:25:28.992Z,96737.52
2019-02-14T22:27:58.508Z,96743.62
2019-02-14T22:30:28.037Z,96735.08
2019-02-14T22:32:57.560Z,96733.41
2019-02-14T22:35:27.077Z,96731.72
2019-02-14T22:37:56.589Z,96730.44
2019-02-14T22:40:26.130Z,96735.36
2019-02-14T22:42:55.633Z,96741.78
2019-02-14T22:45:25.163Z,96741.59
2019-02-14T22:47:54.738Z,96740.50
2019-02-14T22:50:24.508Z,96739.58
2019-02-14T22:52:54.030Z,96739.05
2019-02-14T22:55:23.534Z,96743.53
2019-02-14T22:57:53.084Z,96753.00
2019-02-14T23:00:38.750Z,96744.48
2019-02-14T23:03:08.360Z,96746.02
2019-02-14T23:05:38.042Z,96753.98
2019-02-14T23:08:07.578Z,96752.67
2019-02-14T23:10:37.158Z,96753.10
2019-02-14T23:13:06.708Z,96753.72
2019-02-14T23:15:37.130Z,96744.39
2019-02-14T23:18:06.705Z,96748.68
2019-02-14T23:20:36.397Z,96751.08
2019-02-14T23:23:05.974Z,96748.17
2019-02-14T23:25:35.747Z,96743.53
2019-02-14T23:28:05.249Z,96741.08
2019-02-14T23:30:34.742Z,96738.69
2019-02-14T23:33:05.241Z,96739.11
2019-02-14T23:35:34.749Z,96743.83
2019-02-14T23:38:04.797Z,96736.80
2019-02-14T23:40:34.296Z,96736.37
2019-02-14T23:43:04.897Z,96739.45
2019-02-14T23:45:34.613Z,96744.23
2019-02-14T23:48:04.201Z,96742.84
2019-02-14T23:50:33.709Z,96741.41
2019-02-14T23:53:03.224Z,96735.17
2019-02-14T23:55:32.753Z,96730.91
2019-02-14T23:58:02.958Z,96731.56
